sensor_id;sensor_type;location;lat;lon;timestamp;temperature;humidity
33580;DHT22;19909;43.644;-79.438;2023-05-15T00:00:38;21.60;44.60
33580;DHT22;19909;43.644;-79.438;2023-05-15T00:03:04;21.60;44.50
33580;DHT22;19909;43.644;-79.438;2023-05-15T00:05:31;21.60;44.60
33580;DHT22;19909;43.644;-79.438;2023-05-15T00:07:57;21.60;44.70
33580;DHT22;19909;43.644;-79.438;2023-05-15T00:10:23;21.70;44.80
33580;DHT22;19909;43.644;-79.438;2023-05-15T00:12:49;21.60;44.80
33580;DHT22;19909;43.644;-79.438;2023-05-15T00:15:15;21.60;44.80
33580;DHT22;19909;43.644;-79.438;2023-05-15T00:17:42;21.60;44.70
33580;DHT22;19909;43.644;-79.438;2023-05-15T00:20:08;21.60;44.70
33580;DHT22;19909;43.644;-79.438;2023-05-15T00:22:34;21.60;44.90
33580;DHT22;19909;43.644;-79.438;2023-05-15T00:25:00;21.60;44.90
33580;DHT22;19909;43.644;-79.438;2023-05-15T00:27:26;21.60;44.70
33580;DHT22;19909;43.644;-79.438;2023-05-15T00:29:52;21.60;44.70
33580;DHT22;19909;43.644;-79.438;2023-05-15T00:32:19;21.60;44.70
33580;DHT22;19909;43.644;-79.438;2023-05-15T00:34:45;21.60;44.70
33580;DHT22;19909;43.644;-79.438;2023-05-15T00:37:11;21.60;44.70
33580;DHT22;19909;43.644;-79.438;2023-05-15T00:39:37;21.60;44.70
33580;DHT22;19909;43.644;-79.438;2023-05-15T00:42:04;21.70;44.80
33580;DHT22;19909;43.644;-79.438;2023-05-15T00:44:31;21.60;44.70
33580;DHT22;19909;43.644;-79.438;2023-05-15T00:46:59;21.60;44.70
33580;DHT22;19909;43.644;-79.438;2023-05-15T00:49:26;21.60;44.80
33580;DHT22;19909;43.644;-79.438;2023-05-15T00:51:57;21.60;44.80
33580;DHT22;19909;43.644;-79.438;2023-05-15T00:54:26;21.70;44.90
33580;DHT22;19909;43.644;-79.438;2023-05-15T00:56:55;21.60;44.60
33580;DHT22;19909;43.644;-79.438;2023-05-15T00:59:27;21.60;44.50
33580;DHT22;19909;43.644;-79.438;2023-05-15T01:01:53;21.70;44.70
33580;DHT22;19909;43.644;-79.438;2023-05-15T01:04:20;21.70;44.40
33580;DHT22;19909;43.644;-79.438;2023-05-15T01:06:46;21.60;44.40
33580;DHT22;19909;43.644;-79.438;2023-05-15T01:09:14;21.60;44.60
33580;DHT22;19909;43.644;-79.438;2023-05-15T01:11:41;21.60;44.50
33580;DHT22;19909;43.644;-79.438;2023-05-15T01:14:08;21.70;44.50
33580;DHT22;19909;43.644;-79.438;2023-05-15T01:16:35;21.70;44.50
33580;DHT22;19909;43.644;-79.438;2023-05-15T01:19:02;21.70;44.60
33580;DHT22;19909;43.644;-79.438;2023-05-15T01:24:15;21.70;44.50
33580;DHT22;19909;43.644;-79.438;2023-05-15T01:27:11;21.70;44.40
33580;DHT22;19909;43.644;-79.438;2023-05-15T01:29:43;21.70;44.30
33580;DHT22;19909;43.644;-79.438;2023-05-15T01:32:23;21.70;44.30
33580;DHT22;19909;43.644;-79.438;2023-05-15T01:35:30;21.70;44.40
33580;DHT22;19909;43.644;-79.438;2023-05-15T01:38:02;21.60;44.40
33580;DHT22;19909;43.644;-79.438;2023-05-15T01:40:29;21.70;44.30
33580;DHT22;19909;43.644;-79.438;2023-05-15T01:42:58;21.70;44.40
33580;DHT22;19909;43.644;-79.438;2023-05-15T01:45:26;21.70;44.40
33580;DHT22;19909;43.644;-79.438;2023-05-15T01:47:54;21.60;44.50
33580;DHT22;19909;43.644;-79.438;2023-05-15T01:50:21;21.60;44.50
33580;DHT22;19909;43.644;-79.438;2023-05-15T01:52:50;21.60;44.40
33580;DHT22;19909;43.644;-79.438;2023-05-15T01:55:18;21.60;44.40
33580;DHT22;19909;43.644;-79.438;2023-05-15T01:57:46;21.60;44.30
33580;DHT22;19909;43.644;-79.438;2023-05-15T02:00:14;21.60;44.30
33580;DHT22;19909;43.644;-79.438;2023-05-15T02:02:41;21.70;44.30
33580;DHT22;19909;43.644;-79.438;2023-05-15T02:05:08;21.60;44.40
33580;DHT22;19909;43.644;-79.438;2023-05-15T02:07:34;21.60;44.30
33580;DHT22;19909;43.644;-79.438;2023-05-15T02:10:02;21.60;44.30
33580;DHT22;19909;43.644;-79.438;2023-05-15T02:12:28;21.60;44.40
33580;DHT22;19909;43.644;-79.438;2023-05-15T02:14:57;21.60;44.40
33580;DHT22;19909;43.644;-79.438;2023-05-15T02:17:24;21.60;44.40
33580;DHT22;19909;43.644;-79.438;2023-05-15T02:19:50;21.60;44.40
33580;DHT22;19909;43.644;-79.438;2023-05-15T02:22:16;21.60;44.40
33580;DHT22;19909;43.644;-79.438;2023-05-15T02:24:43;21.60;44.60
33580;DHT22;19909;43.644;-79.438;2023-05-15T02:27:26;21.60;44.40
33580;DHT22;19909;43.644;-79.438;2023-05-15T02:35:35;21.60;44.10
33580;DHT22;19909;43.644;-79.438;2023-05-15T02:38:08;21.60;44.20
33580;DHT22;19909;43.644;-79.438;2023-05-15T02:40:36;21.60;44.20
33580;DHT22;19909;43.644;-79.438;2023-05-15T02:43:04;21.60;44.20
33580;DHT22;19909;43.644;-79.438;2023-05-15T02:45:33;21.60;44.30
33580;DHT22;19909;43.644;-79.438;2023-05-15T02:48:00;21.60;44.30
33580;DHT22;19909;43.644;-79.438;2023-05-15T02:50:27;21.50;44.20
33580;DHT22;19909;43.644;-79.438;2023-05-15T02:53:04;21.60;44.30
33580;DHT22;19909;43.644;-79.438;2023-05-15T02:55:30;21.50;44.30
33580;DHT22;19909;43.644;-79.438;2023-05-15T02:57:57;21.60;44.00
33580;DHT22;19909;43.644;-79.438;2023-05-15T03:00:23;21.60;44.10
33580;DHT22;19909;43.644;-79.438;2023-05-15T03:02:49;21.60;43.90
33580;DHT22;19909;43.644;-79.438;2023-05-15T03:05:15;21.50;44.00
33580;DHT22;19909;43.644;-79.438;2023-05-15T03:07:42;21.60;44.20
33580;DHT22;19909;43.644;-79.438;2023-05-15T03:10:08;21.60;44.30
33580;DHT22;19909;43.644;-79.438;2023-05-15T03:12:34;21.60;44.20
33580;DHT22;19909;43.644;-79.438;2023-05-15T03:15:00;21.60;44.00
33580;DHT22;19909;43.644;-79.438;2023-05-15T03:17:27;21.60;44.10
33580;DHT22;19909;43.644;-79.438;2023-05-15T03:19:53;21.60;44.10
33580;DHT22;19909;43.644;-79.438;2023-05-15T03:22:19;21.60;44.20
33580;DHT22;19909;43.644;-79.438;2023-05-15T03:24:45;21.50;44.20
33580;DHT22;19909;43.644;-79.438;2023-05-15T03:27:11;21.60;44.00
33580;DHT22;19909;43.644;-79.438;2023-05-15T03:29:37;21.50;43.70
33580;DHT22;19909;43.644;-79.438;2023-05-15T03:32:04;21.50;43.90
33580;DHT22;19909;43.644;-79.438;2023-05-15T03:34:30;21.60;43.90
33580;DHT22;19909;43.644;-79.438;2023-05-15T03:36:57;21.50;43.90
33580;DHT22;19909;43.644;-79.438;2023-05-15T03:39:23;21.60;44.00
33580;DHT22;19909;43.644;-79.438;2023-05-15T03:41:50;21.50;43.90
33580;DHT22;19909;43.644;-79.438;2023-05-15T03:44:16;21.50;43.90
33580;DHT22;19909;43.644;-79.438;2023-05-15T03:46:42;21.50;43.90
33580;DHT22;19909;43.644;-79.438;2023-05-15T03:49:08;21.50;43.90
33580;DHT22;19909;43.644;-79.438;2023-05-15T03:51:35;21.50;43.90
33580;DHT22;19909;43.644;-79.438;2023-05-15T03:54:01;21.50;44.10
33580;DHT22;19909;43.644;-79.438;2023-05-15T03:56:30;21.50;44.00
33580;DHT22;19909;43.644;-79.438;2023-05-15T03:58:57;21.50;43.60
33580;DHT22;19909;43.644;-79.438;2023-05-15T04:01:23;21.50;43.80
33580;DHT22;19909;43.644;-79.438;2023-05-15T04:03:50;21.50;43.60
33580;DHT22;19909;43.644;-79.438;2023-05-15T04:06:16;21.50;43.70
33580;DHT22;19909;43.644;-79.438;2023-05-15T04:08:42;21.50;43.70
33580;DHT22;19909;43.644;-79.438;2023-05-15T04:11:09;21.50;43.80
33580;DHT22;19909;43.644;-79.438;2023-05-15T04:13:36;21.50;43.80
33580;DHT22;19909;43.644;-79.438;2023-05-15T04:16:03;21.50;43.80
33580;DHT22;19909;43.644;-79.438;2023-05-15T04:18:29;21.50;43.80
33580;DHT22;19909;43.644;-79.438;2023-05-15T04:20:55;21.50;43.70
33580;DHT22;19909;43.644;-79.438;2023-05-15T04:23:21;21.50;43.90
33580;DHT22;19909;43.644;-79.438;2023-05-15T04:25:47;21.50;43.80
33580;DHT22;19909;43.644;-79.438;2023-05-15T04:28:13;21.50;43.30
33580;DHT22;19909;43.644;-79.438;2023-05-15T04:30:39;21.50;43.40
33580;DHT22;19909;43.644;-79.438;2023-05-15T04:33:06;21.50;43.50
33580;DHT22;19909;43.644;-79.438;2023-05-15T04:35:32;21.50;43.50
33580;DHT22;19909;43.644;-79.438;2023-05-15T04:37:58;21.50;43.50
33580;DHT22;19909;43.644;-79.438;2023-05-15T04:40:25;21.50;44.10
33580;DHT22;19909;43.644;-79.438;2023-05-15T04:42:51;21.50;43.60
33580;DHT22;19909;43.644;-79.438;2023-05-15T04:45:17;21.50;43.50
33580;DHT22;19909;43.644;-79.438;2023-05-15T04:47:43;21.50;43.60
33580;DHT22;19909;43.644;-79.438;2023-05-15T04:50:09;21.50;43.50
33580;DHT22;19909;43.644;-79.438;2023-05-15T04:52:35;21.50;43.60
33580;DHT22;19909;43.644;-79.438;2023-05-15T04:55:02;21.50;43.60
33580;DHT22;19909;43.644;-79.438;2023-05-15T04:57:28;21.50;43.50
33580;DHT22;19909;43.644;-79.438;2023-05-15T04:59:55;21.50;43.20
33580;DHT22;19909;43.644;-79.438;2023-05-15T05:02:23;21.50;43.40
33580;DHT22;19909;43.644;-79.438;2023-05-15T05:04:49;21.50;43.40
33580;DHT22;19909;43.644;-79.438;2023-05-15T05:07:16;21.50;43.40
33580;DHT22;19909;43.644;-79.438;2023-05-15T05:09:42;21.50;43.50
33580;DHT22;19909;43.644;-79.438;2023-05-15T05:12:08;21.50;43.60
33580;DHT22;19909;43.644;-79.438;2023-05-15T05:14:35;21.50;43.50
33580;DHT22;19909;43.644;-79.438;2023-05-15T05:17:01;21.40;43.40
33580;DHT22;19909;43.644;-79.438;2023-05-15T05:19:28;21.50;43.40
33580;DHT22;19909;43.644;-79.438;2023-05-15T05:21:54;21.40;43.40
33580;DHT22;19909;43.644;-79.438;2023-05-15T05:24:23;21.40;43.60
33580;DHT22;19909;43.644;-79.438;2023-05-15T05:26:49;21.50;43.40
33580;DHT22;19909;43.644;-79.438;2023-05-15T05:29:16;21.40;43.00
33580;DHT22;19909;43.644;-79.438;2023-05-15T05:31:42;21.40;43.20
33580;DHT22;19909;43.644;-79.438;2023-05-15T05:34:08;21.40;43.10
33580;DHT22;19909;43.644;-79.438;2023-05-15T05:36:34;21.40;43.20
33580;DHT22;19909;43.644;-79.438;2023-05-15T05:39:01;21.40;43.20
33580;DHT22;19909;43.644;-79.438;2023-05-15T05:41:29;21.50;43.40
33580;DHT22;19909;43.644;-79.438;2023-05-15T05:43:55;21.40;43.30
33580;DHT22;19909;43.644;-79.438;2023-05-15T05:46:21;21.40;43.90
33580;DHT22;19909;43.644;-79.438;2023-05-15T05:48:47;21.40;43.30
33580;DHT22;19909;43.644;-79.438;2023-05-15T05:51:14;21.40;43.20
33580;DHT22;19909;43.644;-79.438;2023-05-15T05:53:40;21.40;43.40
33580;DHT22;19909;43.644;-79.438;2023-05-15T05:56:06;21.40;43.30
33580;DHT22;19909;43.644;-79.438;2023-05-15T05:58:33;21.40;43.00
33580;DHT22;19909;43.644;-79.438;2023-05-15T06:00:59;21.40;43.10
33580;DHT22;19909;43.644;-79.438;2023-05-15T06:03:26;21.40;43.10
33580;DHT22;19909;43.644;-79.438;2023-05-15T06:05:52;21.40;43.10
33580;DHT22;19909;43.644;-79.438;2023-05-15T06:08:19;21.40;43.20
33580;DHT22;19909;43.644;-79.438;2023-05-15T06:10:45;21.40;43.20
33580;DHT22;19909;43.644;-79.438;2023-05-15T06:13:11;21.40;43.20
33580;DHT22;19909;43.644;-79.438;2023-05-15T06:15:40;21.40;43.20
33580;DHT22;19909;43.644;-79.438;2023-05-15T06:18:06;21.40;43.20
33580;DHT22;19909;43.644;-79.438;2023-05-15T06:20:33;21.40;43.20
33580;DHT22;19909;43.644;-79.438;2023-05-15T06:22:59;21.40;43.30
33580;DHT22;19909;43.644;-79.438;2023-05-15T06:25:25;21.40;43.20
33580;DHT22;19909;43.644;-79.438;2023-05-15T06:27:51;21.40;43.00
33580;DHT22;19909;43.644;-79.438;2023-05-15T06:30:17;21.40;42.90
33580;DHT22;19909;43.644;-79.438;2023-05-15T06:32:44;21.40;43.10
33580;DHT22;19909;43.644;-79.438;2023-05-15T06:35:10;21.40;43.00
33580;DHT22;19909;43.644;-79.438;2023-05-15T06:37:37;21.40;43.00
33580;DHT22;19909;43.644;-79.438;2023-05-15T06:40:04;21.40;43.00
33580;DHT22;19909;43.644;-79.438;2023-05-15T06:42:31;21.40;42.50
33580;DHT22;19909;43.644;-79.438;2023-05-15T06:44:57;21.40;43.10
33580;DHT22;19909;43.644;-79.438;2023-05-15T06:47:24;21.40;43.60
33580;DHT22;19909;43.644;-79.438;2023-05-15T06:49:50;21.40;43.00
33580;DHT22;19909;43.644;-79.438;2023-05-15T06:52:16;21.40;43.00
33580;DHT22;19909;43.644;-79.438;2023-05-15T06:54:42;21.40;43.10
33580;DHT22;19909;43.644;-79.438;2023-05-15T06:57:08;21.40;43.00
33580;DHT22;19909;43.644;-79.438;2023-05-15T06:59:35;21.40;42.70
33580;DHT22;19909;43.644;-79.438;2023-05-15T07:02:02;21.40;43.00
33580;DHT22;19909;43.644;-79.438;2023-05-15T07:04:28;21.40;42.90
33580;DHT22;19909;43.644;-79.438;2023-05-15T07:06:56;21.40;42.90
33580;DHT22;19909;43.644;-79.438;2023-05-15T07:09:22;21.40;42.90
33580;DHT22;19909;43.644;-79.438;2023-05-15T07:11:48;21.40;42.90
33580;DHT22;19909;43.644;-79.438;2023-05-15T07:14:15;21.40;43.00
33580;DHT22;19909;43.644;-79.438;2023-05-15T07:16:41;21.40;43.00
33580;DHT22;19909;43.644;-79.438;2023-05-15T07:19:08;21.40;43.00
33580;DHT22;19909;43.644;-79.438;2023-05-15T07:21:34;21.30;42.80
33580;DHT22;19909;43.644;-79.438;2023-05-15T07:24:00;21.40;43.10
33580;DHT22;19909;43.644;-79.438;2023-05-15T07:26:26;21.40;43.00
33580;DHT22;19909;43.644;-79.438;2023-05-15T07:28:53;21.40;42.60
33580;DHT22;19909;43.644;-79.438;2023-05-15T07:31:20;21.30;42.80
33580;DHT22;19909;43.644;-79.438;2023-05-15T07:33:46;21.40;42.80
33580;DHT22;19909;43.644;-79.438;2023-05-15T07:36:12;21.30;42.70
33580;DHT22;19909;43.644;-79.438;2023-05-15T07:38:38;21.40;42.80
33580;DHT22;19909;43.644;-79.438;2023-05-15T07:41:04;21.30;42.70
33580;DHT22;19909;43.644;-79.438;2023-05-15T07:43:31;21.40;42.90
33580;DHT22;19909;43.644;-79.438;2023-05-15T07:45:57;21.30;42.80
33580;DHT22;19909;43.644;-79.438;2023-05-15T07:48:23;21.30;42.80
33580;DHT22;19909;43.644;-79.438;2023-05-15T07:50:49;21.30;42.70
33580;DHT22;19909;43.644;-79.438;2023-05-15T07:53:16;21.40;43.00
33580;DHT22;19909;43.644;-79.438;2023-05-15T07:55:43;21.30;42.90
33580;DHT22;19909;43.644;-79.438;2023-05-15T07:58:10;21.30;42.60
33580;DHT22;19909;43.644;-79.438;2023-05-15T08:00:36;21.30;42.50
33580;DHT22;19909;43.644;-79.438;2023-05-15T08:03:03;21.30;42.70
33580;DHT22;19909;43.644;-79.438;2023-05-15T08:05:29;21.30;42.80
33580;DHT22;19909;43.644;-79.438;2023-05-15T08:07:56;21.30;42.70
33580;DHT22;19909;43.644;-79.438;2023-05-15T08:10:22;21.30;42.80
33580;DHT22;19909;43.644;-79.438;2023-05-15T08:12:48;21.30;42.80
33580;DHT22;19909;43.644;-79.438;2023-05-15T08:15:15;21.30;42.70
33580;DHT22;19909;43.644;-79.438;2023-05-15T08:17:42;21.30;42.80
33580;DHT22;19909;43.644;-79.438;2023-05-15T08:20:08;21.30;43.40
33580;DHT22;19909;43.644;-79.438;2023-05-15T08:22:35;21.30;43.00
33580;DHT22;19909;43.644;-79.438;2023-05-15T08:25:01;21.30;43.00
33580;DHT22;19909;43.644;-79.438;2023-05-15T08:27:31;21.30;42.70
33580;DHT22;19909;43.644;-79.438;2023-05-15T08:29:57;21.30;42.60
33580;DHT22;19909;43.644;-79.438;2023-05-15T08:32:23;21.30;42.70
33580;DHT22;19909;43.644;-79.438;2023-05-15T08:34:50;21.30;42.70
33580;DHT22;19909;43.644;-79.438;2023-05-15T08:37:16;21.30;42.70
33580;DHT22;19909;43.644;-79.438;2023-05-15T08:39:42;21.30;42.70
33580;DHT22;19909;43.644;-79.438;2023-05-15T08:44:44;21.30;43.40
33580;DHT22;19909;43.644;-79.438;2023-05-15T08:47:10;21.30;42.80
33580;DHT22;19909;43.644;-79.438;2023-05-15T08:52:15;21.30;42.90
33580;DHT22;19909;43.644;-79.438;2023-05-15T08:54:41;21.30;43.00
33580;DHT22;19909;43.644;-79.438;2023-05-15T08:57:08;21.30;42.60
33580;DHT22;19909;43.644;-79.438;2023-05-15T08:59:36;21.30;42.50
33580;DHT22;19909;43.644;-79.438;2023-05-15T09:02:02;21.30;42.60
33580;DHT22;19909;43.644;-79.438;2023-05-15T09:04:28;21.30;42.50
33580;DHT22;19909;43.644;-79.438;2023-05-15T09:06:56;21.20;42.40
33580;DHT22;19909;43.644;-79.438;2023-05-15T09:09:24;21.20;42.50
33580;DHT22;19909;43.644;-79.438;2023-05-15T09:11:52;21.30;42.60
33580;DHT22;19909;43.644;-79.438;2023-05-15T09:14:19;21.20;42.60
33580;DHT22;19909;43.644;-79.438;2023-05-15T09:16:45;21.30;42.50
33580;DHT22;19909;43.644;-79.438;2023-05-15T09:19:18;21.30;42.60
33580;DHT22;19909;43.644;-79.438;2023-05-15T09:21:44;21.30;42.60
33580;DHT22;19909;43.644;-79.438;2023-05-15T09:24:23;21.30;42.80
33580;DHT22;19909;43.644;-79.438;2023-05-15T09:27:02;21.20;42.60
33580;DHT22;19909;43.644;-79.438;2023-05-15T09:29:30;21.30;42.30
33580;DHT22;19909;43.644;-79.438;2023-05-15T09:32:00;21.20;42.60
33580;DHT22;19909;43.644;-79.438;2023-05-15T09:34:32;21.20;42.40
33580;DHT22;19909;43.644;-79.438;2023-05-15T09:37:01;21.30;42.40
33580;DHT22;19909;43.644;-79.438;2023-05-15T09:39:28;21.20;42.40
33580;DHT22;19909;43.644;-79.438;2023-05-15T09:42:05;21.20;42.50
33580;DHT22;19909;43.644;-79.438;2023-05-15T09:44:31;21.20;42.60
33580;DHT22;19909;43.644;-79.438;2023-05-15T09:46:59;21.20;42.60
33580;DHT22;19909;43.644;-79.438;2023-05-15T09:49:29;21.20;42.50
33580;DHT22;19909;43.644;-79.438;2023-05-15T09:51:59;21.20;42.60
33580;DHT22;19909;43.644;-79.438;2023-05-15T09:54:27;21.30;42.80
33580;DHT22;19909;43.644;-79.438;2023-05-15T09:56:55;21.20;42.40
33580;DHT22;19909;43.644;-79.438;2023-05-15T09:59:22;21.20;42.20
33580;DHT22;19909;43.644;-79.438;2023-05-15T10:01:49;21.20;42.30
33580;DHT22;19909;43.644;-79.438;2023-05-15T10:04:16;21.20;42.40
33580;DHT22;19909;43.644;-79.438;2023-05-15T10:06:46;21.20;42.40
33580;DHT22;19909;43.644;-79.438;2023-05-15T10:09:13;21.20;42.50
33580;DHT22;19909;43.644;-79.438;2023-05-15T10:11:43;21.20;42.40
33580;DHT22;19909;43.644;-79.438;2023-05-15T10:14:11;21.20;42.40
33580;DHT22;19909;43.644;-79.438;2023-05-15T10:16:39;21.20;42.40
33580;DHT22;19909;43.644;-79.438;2023-05-15T10:19:07;21.20;42.40
33580;DHT22;19909;43.644;-79.438;2023-05-15T10:21:35;21.20;42.40
33580;DHT22;19909;43.644;-79.438;2023-05-15T10:24:02;21.20;42.70
33580;DHT22;19909;43.644;-79.438;2023-05-15T10:29:07;21.20;42.20
33580;DHT22;19909;43.644;-79.438;2023-05-15T10:31:34;21.20;42.40
33580;DHT22;19909;43.644;-79.438;2023-05-15T10:34:02;21.20;42.30
33580;DHT22;19909;43.644;-79.438;2023-05-15T10:36:33;21.20;42.30
33580;DHT22;19909;43.644;-79.438;2023-05-15T10:39:02;21.20;42.40
33580;DHT22;19909;43.644;-79.438;2023-05-15T10:41:30;21.20;43.00
33580;DHT22;19909;43.644;-79.438;2023-05-15T10:43:58;21.20;42.50
33580;DHT22;19909;43.644;-79.438;2023-05-15T10:46:25;21.20;42.50
33580;DHT22;19909;43.644;-79.438;2023-05-15T10:48:52;21.20;42.50
33580;DHT22;19909;43.644;-79.438;2023-05-15T10:51:24;21.20;42.50
33580;DHT22;19909;43.644;-79.438;2023-05-15T10:53:52;21.20;42.70
33580;DHT22;19909;43.644;-79.438;2023-05-15T10:56:18;21.20;43.00
33580;DHT22;19909;43.644;-79.438;2023-05-15T10:58:48;21.20;42.20
33580;DHT22;19909;43.644;-79.438;2023-05-15T11:01:28;21.20;42.40
33580;DHT22;19909;43.644;-79.438;2023-05-15T11:06:39;21.20;42.40
33580;DHT22;19909;43.644;-79.438;2023-05-15T11:11:53;21.20;42.40
33580;DHT22;19909;43.644;-79.438;2023-05-15T11:14:25;21.20;42.50
33580;DHT22;19909;43.644;-79.438;2023-05-15T11:19:22;21.20;42.30
33580;DHT22;19909;43.644;-79.438;2023-05-15T11:24:50;21.20;42.60
33580;DHT22;19909;43.644;-79.438;2023-05-15T11:27:24;21.20;42.40
33580;DHT22;19909;43.644;-79.438;2023-05-15T11:30:11;21.20;42.20
33580;DHT22;19909;43.644;-79.438;2023-05-15T11:40:50;21.10;42.40
33580;DHT22;19909;43.644;-79.438;2023-05-15T11:46:04;21.10;42.50
33580;DHT22;19909;43.644;-79.438;2023-05-15T11:48:41;21.10;42.50
33580;DHT22;19909;43.644;-79.438;2023-05-15T11:51:19;21.10;42.50
33580;DHT22;19909;43.644;-79.438;2023-05-15T11:53:49;21.10;42.70
33580;DHT22;19909;43.644;-79.438;2023-05-15T11:56:20;21.10;42.60
33580;DHT22;19909;43.644;-79.438;2023-05-15T11:58:56;21.10;42.30
33580;DHT22;19909;43.644;-79.438;2023-05-15T12:01:23;21.10;42.40
33580;DHT22;19909;43.644;-79.438;2023-05-15T12:03:50;21.10;42.40
33580;DHT22;19909;43.644;-79.438;2023-05-15T12:06:18;21.10;42.30
33580;DHT22;19909;43.644;-79.438;2023-05-15T12:08:50;21.10;42.30
33580;DHT22;19909;43.644;-79.438;2023-05-15T12:11:21;21.10;42.40
33580;DHT22;19909;43.644;-79.438;2023-05-15T12:13:53;21.10;42.40
33580;DHT22;19909;43.644;-79.438;2023-05-15T12:16:24;21.10;42.50
33580;DHT22;19909;43.644;-79.438;2023-05-15T12:18:51;21.10;42.50
33580;DHT22;19909;43.644;-79.438;2023-05-15T12:21:17;21.10;42.50
33580;DHT22;19909;43.644;-79.438;2023-05-15T12:23:52;21.10;42.60
33580;DHT22;19909;43.644;-79.438;2023-05-15T12:26:20;21.10;42.60
33580;DHT22;19909;43.644;-79.438;2023-05-15T12:28:49;21.20;42.30
33580;DHT22;19909;43.644;-79.438;2023-05-15T12:31:16;21.10;42.30
33580;DHT22;19909;43.644;-79.438;2023-05-15T12:33:43;21.10;42.40
33580;DHT22;19909;43.644;-79.438;2023-05-15T12:36:10;21.10;42.40
33580;DHT22;19909;43.644;-79.438;2023-05-15T12:38:37;21.10;42.40
33580;DHT22;19909;43.644;-79.438;2023-05-15T12:41:04;21.10;42.50
33580;DHT22;19909;43.644;-79.438;2023-05-15T12:43:31;21.10;42.60
33580;DHT22;19909;43.644;-79.438;2023-05-15T12:45:57;21.10;42.60
33580;DHT22;19909;43.644;-79.438;2023-05-15T12:48:30;21.10;42.60
33580;DHT22;19909;43.644;-79.438;2023-05-15T12:51:04;21.10;42.60
33580;DHT22;19909;43.644;-79.438;2023-05-15T12:53:31;21.10;42.70
33580;DHT22;19909;43.644;-79.438;2023-05-15T12:55:59;21.10;42.70
33580;DHT22;19909;43.644;-79.438;2023-05-15T12:58:26;21.20;42.40
33580;DHT22;19909;43.644;-79.438;2023-05-15T13:00:52;21.10;42.40
33580;DHT22;19909;43.644;-79.438;2023-05-15T13:03:19;21.20;42.40
33580;DHT22;19909;43.644;-79.438;2023-05-15T13:05:48;21.10;42.40
33580;DHT22;19909;43.644;-79.438;2023-05-15T13:08:18;21.20;42.60
33580;DHT22;19909;43.644;-79.438;2023-05-15T13:10:45;21.10;42.60
33580;DHT22;19909;43.644;-79.438;2023-05-15T13:13:12;21.10;42.60
33580;DHT22;19909;43.644;-79.438;2023-05-15T13:15:41;21.10;42.70
33580;DHT22;19909;43.644;-79.438;2023-05-15T13:18:08;21.10;42.60
33580;DHT22;19909;43.644;-79.438;2023-05-15T13:20:41;21.10;42.70
33580;DHT22;19909;43.644;-79.438;2023-05-15T13:23:07;21.10;42.80
33580;DHT22;19909;43.644;-79.438;2023-05-15T13:25:33;21.10;42.70
33580;DHT22;19909;43.644;-79.438;2023-05-15T13:28:03;21.10;42.60
33580;DHT22;19909;43.644;-79.438;2023-05-15T13:30:29;21.10;42.60
33580;DHT22;19909;43.644;-79.438;2023-05-15T13:32:56;21.10;42.50
33580;DHT22;19909;43.644;-79.438;2023-05-15T13:35:23;21.10;42.60
33580;DHT22;19909;43.644;-79.438;2023-05-15T13:37:49;21.10;42.60
33580;DHT22;19909;43.644;-79.438;2023-05-15T13:40:16;21.10;42.70
33580;DHT22;19909;43.644;-79.438;2023-05-15T13:42:43;21.10;42.70
33580;DHT22;19909;43.644;-79.438;2023-05-15T13:45:11;21.10;42.70
33580;DHT22;19909;43.644;-79.438;2023-05-15T13:47:37;21.10;42.80
33580;DHT22;19909;43.644;-79.438;2023-05-15T13:50:05;21.10;42.80
33580;DHT22;19909;43.644;-79.438;2023-05-15T13:52:31;21.10;42.90
33580;DHT22;19909;43.644;-79.438;2023-05-15T13:54:57;21.10;43.00
33580;DHT22;19909;43.644;-79.438;2023-05-15T13:57:23;21.10;42.70
33580;DHT22;19909;43.644;-79.438;2023-05-15T13:59:50;21.10;42.60
33580;DHT22;19909;43.644;-79.438;2023-05-15T14:02:17;21.10;42.60
33580;DHT22;19909;43.644;-79.438;2023-05-15T14:04:45;21.10;42.60
33580;DHT22;19909;43.644;-79.438;2023-05-15T14:07:11;21.10;42.70
33580;DHT22;19909;43.644;-79.438;2023-05-15T14:09:37;21.10;42.80
33580;DHT22;19909;43.644;-79.438;2023-05-15T14:12:03;21.10;42.70
33580;DHT22;19909;43.644;-79.438;2023-05-15T14:14:30;21.10;42.80
33580;DHT22;19909;43.644;-79.438;2023-05-15T14:16:56;21.10;42.90
33580;DHT22;19909;43.644;-79.438;2023-05-15T14:19:22;21.10;42.90
33580;DHT22;19909;43.644;-79.438;2023-05-15T14:21:48;21.10;43.00
33580;DHT22;19909;43.644;-79.438;2023-05-15T14:24:14;21.10;43.10
33580;DHT22;19909;43.644;-79.438;2023-05-15T14:26:40;21.10;42.80
33580;DHT22;19909;43.644;-79.438;2023-05-15T14:29:08;21.10;42.70
33580;DHT22;19909;43.644;-79.438;2023-05-15T14:31:35;21.10;42.60
33580;DHT22;19909;43.644;-79.438;2023-05-15T14:34:01;21.10;42.70
33580;DHT22;19909;43.644;-79.438;2023-05-15T14:36:27;21.10;42.70
33580;DHT22;19909;43.644;-79.438;2023-05-15T14:38:53;21.10;42.80
33580;DHT22;19909;43.644;-79.438;2023-05-15T14:41:19;21.10;42.80
33580;DHT22;19909;43.644;-79.438;2023-05-15T14:43:46;21.10;43.00
33580;DHT22;19909;43.644;-79.438;2023-05-15T14:46:12;21.10;43.00
33580;DHT22;19909;43.644;-79.438;2023-05-15T14:48:38;21.10;43.00
33580;DHT22;19909;43.644;-79.438;2023-05-15T14:51:04;21.10;42.90
33580;DHT22;19909;43.644;-79.438;2023-05-15T14:53:31;21.10;43.20
33580;DHT22;19909;43.644;-79.438;2023-05-15T14:55:57;21.10;43.00
33580;DHT22;19909;43.644;-79.438;2023-05-15T14:58:23;21.10;42.80
33580;DHT22;19909;43.644;-79.438;2023-05-15T15:00:49;21.10;42.90
33580;DHT22;19909;43.644;-79.438;2023-05-15T15:03:17;21.10;42.70
33580;DHT22;19909;43.644;-79.438;2023-05-15T15:05:46;21.10;42.80
33580;DHT22;19909;43.644;-79.438;2023-05-15T15:08:13;21.10;42.90
33580;DHT22;19909;43.644;-79.438;2023-05-15T15:10:40;21.10;42.90
33580;DHT22;19909;43.644;-79.438;2023-05-15T15:13:08;21.10;43.00
33580;DHT22;19909;43.644;-79.438;2023-05-15T15:15:35;21.10;43.00
33580;DHT22;19909;43.644;-79.438;2023-05-15T15:18:01;21.10;43.10
33580;DHT22;19909;43.644;-79.438;2023-05-15T15:20:27;21.10;43.10
33580;DHT22;19909;43.644;-79.438;2023-05-15T15:22:54;21.10;43.20
33580;DHT22;19909;43.644;-79.438;2023-05-15T15:25:21;21.10;43.10
33580;DHT22;19909;43.644;-79.438;2023-05-15T15:27:48;21.10;43.00
33580;DHT22;19909;43.644;-79.438;2023-05-15T15:30:15;21.10;42.90
33580;DHT22;19909;43.644;-79.438;2023-05-15T15:32:42;21.10;42.90
33580;DHT22;19909;43.644;-79.438;2023-05-15T15:35:09;21.10;43.00
33580;DHT22;19909;43.644;-79.438;2023-05-15T15:37:36;21.10;43.00
33580;DHT22;19909;43.644;-79.438;2023-05-15T15:40:05;21.20;43.10
33580;DHT22;19909;43.644;-79.438;2023-05-15T15:42:34;21.10;43.10